Reno, Nevada
Current Conditions -  °F | °C
As of 4:55 PM on Monday 20 Oct 2014 (Local Time) from KRNO Reporting Station
Scattered Clouds Scattered Clouds  
Wind Chill: 68°   Ceiling: Unl
Heat Index: 68°   Visibility: 10mi
Dew Point: 34°   Wind: 22mph
Humidity: 28%   Direction: 200°SSW
Pressure: 29.86"   Gusts: 30mph
Location:  39.52°N, 119.81°W
Report Text: KRNO 202355Z 20019G26KT 10SM FEW080 FEW150 SCT250 20/01 A2986 RMK AO2 PK WND 19026/2349 SLP078 ACSL DSNT N SE NW T02000011 10233 20200 58008
Loading
Personal Weather Stations






























Interactive Weather Map New forecast layout! Learn more

10-Day Weather Forecast

Advertisements
Track Severe Weather on mobile